createdAt,value
2018-10-09T00:00:05.519Z,102060.53
2018-10-09T00:02:34.507Z,102051.93
2018-10-09T00:05:03.544Z,102052.26
2018-10-09T00:07:32.445Z,102059.73
2018-10-09T00:10:01.327Z,102051.88
2018-10-09T00:12:30.217Z,102053.43
2018-10-09T00:14:59.130Z,102054.83
2018-10-09T00:17:28.040Z,102046.39
2018-10-09T00:19:56.930Z,102055.48
2018-10-09T00:22:25.931Z,102059.84
2018-10-09T00:24:54.836Z,102064.73
2018-10-09T00:27:23.715Z,102068.88
2018-10-09T00:29:52.617Z,102074.95
2018-10-09T00:32:21.638Z,102076.94
2018-10-09T00:34:50.539Z,102090.81
2018-10-09T00:37:19.504Z,102086.66
2018-10-09T00:39:48.358Z,102082.63
2018-10-09T00:42:17.378Z,102072.27
2018-10-09T00:44:46.296Z,102064.95
2018-10-09T00:47:15.240Z,102055.55
2018-10-09T00:49:44.141Z,102050.16
2018-10-09T00:52:13.055Z,102050.55
2018-10-09T00:54:41.975Z,102046.50
2018-10-09T00:57:11.021Z,102044.45
2018-10-09T00:59:39.949Z,102049.58
2018-10-09T01:02:08.982Z,102051.17
2018-10-09T01:04:37.917Z,102044.79
2018-10-09T01:07:07.146Z,102043.00
2018-10-09T01:09:36.246Z,102050.69
2018-10-09T01:12:05.156Z,102040.53
2018-10-09T01:14:34.037Z,102042.75
2018-10-09T01:17:03.125Z,102048.60
2018-10-09T01:19:32.113Z,102037.84
2018-10-09T01:22:01.042Z,102040.31
2018-10-09T01:24:29.985Z,102039.70
2018-10-09T01:26:58.878Z,102034.16
2018-10-09T01:29:27.827Z,102027.94
2018-10-09T01:31:56.809Z,102025.31
2018-10-09T01:34:25.736Z,102018.95
2018-10-09T01:36:54.849Z,102023.48
2018-10-09T01:39:23.730Z,102011.83
2018-10-09T01:41:52.626Z,102007.46
2018-10-09T01:44:21.550Z,101999.50
2018-10-09T01:46:50.744Z,101996.00
2018-10-09T01:49:19.665Z,101988.55
2018-10-09T01:51:48.576Z,101990.48
2018-10-09T01:54:17.561Z,101986.11
2018-10-09T01:56:46.450Z,101984.72
2018-10-09T01:59:15.371Z,101976.66
2018-10-09T02:01:44.330Z,101974.08
2018-10-09T02:04:13.275Z,101977.99
2018-10-09T02:06:42.239Z,101985.20
2018-10-09T02:09:17.246Z,101983.11
2018-10-09T02:11:48.290Z,101975.30
2018-10-09T02:14:17.259Z,101971.50
2018-10-09T02:16:46.148Z,101974.33
2018-10-09T02:19:15.059Z,101967.95
2018-10-09T02:21:43.939Z,101969.94
2018-10-09T02:24:12.855Z,101969.29
2018-10-09T02:26:41.734Z,101962.33
2018-10-09T02:29:10.713Z,101970.14
2018-10-09T02:31:39.641Z,101969.07
2018-10-09T02:34:08.534Z,101974.65
2018-10-09T02:36:37.453Z,101976.86
2018-10-09T02:39:08.497Z,101977.50
2018-10-09T02:41:38.470Z,101969.00
2018-10-09T02:44:07.791Z,101969.70
2018-10-09T02:46:36.729Z,101968.23
2018-10-09T02:49:05.991Z,101978.06
2018-10-09T02:51:34.997Z,101978.40
2018-10-09T02:54:04.965Z,101970.92
2018-10-09T02:56:33.879Z,101978.34
2018-10-09T02:59:02.793Z,101970.62
2018-10-09T03:01:31.697Z,101969.69
2018-10-09T03:04:00.755Z,101968.72
2018-10-09T03:06:29.643Z,101955.23
2018-10-09T03:08:58.611Z,101951.42
2018-10-09T03:11:27.526Z,101953.80
2018-10-09T03:13:56.511Z,101952.34
2018-10-09T03:16:25.510Z,101955.75
2018-10-09T03:18:54.590Z,101956.65
2018-10-09T03:21:24.620Z,101954.77
2018-10-09T03:23:53.541Z,101948.31
2018-10-09T03:26:22.476Z,101939.87
2018-10-09T03:28:51.503Z,101939.33
2018-10-09T03:31:20.459Z,101941.27
2018-10-09T03:33:49.623Z,101949.55
2018-10-09T03:36:18.568Z,101953.21
2018-10-09T03:38:47.477Z,101953.58
2018-10-09T03:41:16.482Z,101948.00
2018-10-09T03:43:45.361Z,101940.90
2018-10-09T03:46:14.529Z,101951.36
2018-10-09T03:48:43.450Z,101947.17
2018-10-09T03:51:12.437Z,101948.42
2018-10-09T03:53:41.305Z,101952.23
2018-10-09T03:56:10.206Z,101956.58
2018-10-09T03:58:39.130Z,101957.38
2018-10-09T04:01:08.019Z,101962.52
2018-10-09T04:03:37.014Z,101962.47
2018-10-09T04:06:05.994Z,101953.83
2018-10-09T04:08:34.900Z,101958.30
2018-10-09T04:11:03.840Z,101960.06
2018-10-09T04:13:32.846Z,101953.95
2018-10-09T04:16:01.746Z,101971.09
2018-10-09T04:18:30.702Z,101973.13
2018-10-09T04:20:59.583Z,101977.53
2018-10-09T04:23:28.498Z,101976.81
2018-10-09T04:27:00.818Z,101972.79
2018-10-09T04:42:29.210Z,101969.53
2018-10-09T04:44:58.090Z,101974.45
2018-10-09T04:47:32.604Z,101969.19
2018-10-09T04:50:01.514Z,101974.84
2018-10-09T04:52:30.394Z,101973.11
2018-10-09T04:54:59.324Z,101969.89
2018-10-09T04:57:28.226Z,101972.17
2018-10-09T04:59:57.137Z,101977.31
2018-10-09T05:02:26.044Z,101979.71
2018-10-09T05:04:54.935Z,101974.84
2018-10-09T05:07:24.149Z,101978.87
2018-10-09T05:09:53.083Z,101983.31
2018-10-09T05:12:21.998Z,101976.50
2018-10-09T05:14:50.941Z,101977.42
2018-10-09T05:17:19.861Z,101978.23
2018-10-09T05:19:48.926Z,101977.17
2018-10-09T05:22:17.904Z,101976.84
2018-10-09T05:24:46.784Z,101972.05
2018-10-09T05:27:15.688Z,101977.42
2018-10-09T05:29:44.667Z,101984.55
2018-10-09T05:32:13.658Z,101990.21
2018-10-09T05:34:49.292Z,101999.71
2018-10-09T05:37:18.190Z,102004.17
2018-10-09T05:39:47.074Z,101991.08
2018-10-09T05:42:15.992Z,101999.16
2018-10-09T05:44:45.003Z,102003.87
2018-10-09T05:47:14.406Z,102008.38
2018-10-09T05:49:43.527Z,102009.41
2018-10-09T05:52:12.403Z,102018.45
2018-10-09T05:54:41.358Z,102026.17
2018-10-09T05:57:10.700Z,102024.58
2018-10-09T05:59:39.702Z,102028.38
2018-10-09T06:02:09.168Z,102027.03
2018-10-09T06:04:38.450Z,102030.36
2018-10-09T06:07:07.366Z,102025.75
2018-10-09T06:09:36.284Z,102019.65
2018-10-09T06:12:05.247Z,102016.61
2018-10-09T06:14:34.172Z,102020.11
2018-10-09T06:17:03.085Z,102024.23
2018-10-09T06:19:32.016Z,102023.44
2018-10-09T06:22:01.704Z,102028.51
2018-10-09T06:24:30.555Z,102023.77
2018-10-09T06:26:59.918Z,102030.02
2018-10-09T06:29:29.299Z,102023.67
2018-10-09T06:31:58.614Z,102026.23
2018-10-09T06:34:27.963Z,102030.77
2018-10-09T06:36:57.289Z,102041.27
2018-10-09T06:39:26.569Z,102041.86
2018-10-09T06:41:55.944Z,102041.44
2018-10-09T06:44:25.355Z,102042.67
2018-10-09T06:46:54.642Z,102041.88
2018-10-09T06:49:29.446Z,102050.13
2018-10-09T06:51:59.089Z,102064.50
2018-10-09T06:54:28.533Z,102060.41
2018-10-09T06:56:57.890Z,102058.66
2018-10-09T06:59:27.418Z,102060.87
2018-10-09T07:01:56.771Z,102065.26
2018-10-09T07:04:26.085Z,102060.91
2018-10-09T07:06:55.976Z,102062.89
2018-10-09T07:09:25.351Z,102064.18
2018-10-09T07:11:54.765Z,102074.94
2018-10-09T07:14:24.104Z,102075.13
2018-10-09T07:16:53.407Z,102083.47
2018-10-09T07:19:22.723Z,102084.45
2018-10-09T07:21:52.083Z,102083.53
2018-10-09T07:24:21.375Z,102085.06
2018-10-09T07:26:50.680Z,102095.58
2018-10-09T07:29:20.259Z,102094.39
2018-10-09T07:31:49.589Z,102086.64
2018-10-09T07:34:18.876Z,102100.41
2018-10-09T07:36:48.247Z,102100.89
2018-10-09T07:39:17.632Z,102109.84
2018-10-09T07:41:47.012Z,102114.62
2018-10-09T07:44:16.388Z,102118.92
2018-10-09T07:46:45.635Z,102109.71
2018-10-09T07:49:14.903Z,102119.01
2018-10-09T07:51:44.217Z,102116.95
2018-10-09T07:54:13.641Z,102110.88
2018-10-09T07:56:43.060Z,102113.81
2018-10-09T07:59:12.801Z,102111.98
2018-10-09T08:01:42.178Z,102119.62
2018-10-09T08:04:11.436Z,102117.86
2018-10-09T08:06:40.711Z,102122.86
2018-10-09T08:09:11.632Z,102119.22
2018-10-09T08:11:40.986Z,102124.67
2018-10-09T08:14:10.230Z,102129.59
2018-10-09T08:16:39.543Z,102131.61
2018-10-09T08:19:08.908Z,102132.69
2018-10-09T08:21:38.194Z,102140.64
2018-10-09T08:24:07.957Z,102134.19
2018-10-09T08:26:37.250Z,102129.06
2018-10-09T08:29:06.564Z,102135.73
2018-10-09T08:31:35.860Z,102135.73
2018-10-09T08:34:05.120Z,102134.77
2018-10-09T08:36:34.560Z,102134.86
2018-10-09T08:39:04.766Z,102131.33
2018-10-09T08:41:34.178Z,102122.58
2018-10-09T08:44:03.483Z,102132.14
2018-10-09T08:46:32.734Z,102131.85
2018-10-09T08:49:02.392Z,102137.47
2018-10-09T08:51:31.942Z,102130.38
2018-10-09T08:54:01.224Z,102137.78
2018-10-09T08:56:30.647Z,102138.27
2018-10-09T08:58:59.948Z,102127.07
2018-10-09T09:01:29.232Z,102131.17
2018-10-09T09:03:58.585Z,102136.62
2018-10-09T09:06:27.901Z,102132.27
2018-10-09T09:08:57.157Z,102131.20
2018-10-09T09:11:26.507Z,102128.08
2018-10-09T09:13:55.797Z,102129.81
2018-10-09T09:16:25.101Z,102121.21
2018-10-09T09:18:54.497Z,102122.63
2018-10-09T09:21:23.871Z,102117.68
2018-10-09T09:23:53.178Z,102126.05
2018-10-09T09:26:22.536Z,102125.89
2018-10-09T09:28:51.896Z,102120.61
2018-10-09T09:31:21.228Z,102118.99
2018-10-09T09:33:50.581Z,102115.67
2018-10-09T09:36:19.920Z,102110.16
2018-10-09T09:38:49.583Z,102108.80
2018-10-09T09:41:19.021Z,102110.70
2018-10-09T09:43:48.713Z,102111.47
2018-10-09T09:46:18.737Z,102102.72
2018-10-09T09:48:48.161Z,102101.64
2018-10-09T09:51:17.837Z,102107.66
2018-10-09T09:53:47.208Z,102109.02
2018-10-09T09:56:16.512Z,102095.52
2018-10-09T09:58:46.141Z,102098.22
2018-10-09T10:01:15.014Z,102096.94
2018-10-09T10:03:44.418Z,102087.11
2018-10-09T10:06:13.704Z,102095.72
2018-10-09T10:08:43.049Z,102097.59
2018-10-09T10:11:12.477Z,102100.03
2018-10-09T10:13:41.875Z,102086.65
2018-10-09T10:16:11.393Z,102087.84
2018-10-09T10:18:40.866Z,102092.05
2018-10-09T10:21:10.198Z,102087.06
2018-10-09T10:23:39.476Z,102083.58
2018-10-09T10:26:08.991Z,102080.41
2018-10-09T10:28:38.512Z,102080.41
2018-10-09T10:31:08.212Z,102079.67
2018-10-09T10:33:37.509Z,102080.72
2018-10-09T10:36:07.429Z,102078.16
2018-10-09T10:38:36.986Z,102075.24
2018-10-09T10:41:06.848Z,102075.72
2018-10-09T10:43:36.216Z,102078.27
2018-10-09T10:46:05.624Z,102074.07
2018-10-09T10:48:34.901Z,102075.34
2018-10-09T10:51:04.538Z,102078.05
2018-10-09T10:53:34.068Z,102071.30
2018-10-09T10:56:03.781Z,102075.89
2018-10-09T10:58:33.085Z,102079.38
2018-10-09T11:01:02.385Z,102077.99
2018-10-09T11:03:31.729Z,102079.34
2018-10-09T11:06:01.065Z,102070.75
2018-10-09T11:08:30.399Z,102067.97
2018-10-09T11:10:59.713Z,102065.69
2018-10-09T11:13:29.049Z,102071.70
2018-10-09T11:15:58.376Z,102075.30
2018-10-09T11:18:27.735Z,102079.58
2018-10-09T11:20:57.121Z,102071.47
2018-10-09T11:23:26.419Z,102065.20
2018-10-09T11:25:55.819Z,102069.74
2018-10-09T11:28:25.106Z,102067.01
2018-10-09T11:30:54.490Z,102060.89
2018-10-09T11:33:25.905Z,102058.34
2018-10-09T11:35:55.193Z,102057.05
2018-10-09T11:38:24.557Z,102061.81
2018-10-09T11:40:54.015Z,102051.22
2018-10-09T11:43:23.480Z,102055.92
2018-10-09T11:45:52.854Z,102053.27
2018-10-09T11:48:22.126Z,102057.05
2018-10-09T11:50:51.522Z,102057.28
2018-10-09T11:53:20.785Z,102048.38
2018-10-09T11:55:50.090Z,102045.75
2018-10-09T11:58:19.392Z,102043.34
2018-10-09T12:00:50.071Z,102042.68
2018-10-09T12:03:19.396Z,102044.02
2018-10-09T12:05:48.825Z,102035.00
2018-10-09T12:08:17.977Z,102024.67
2018-10-09T12:10:47.260Z,102032.45
2018-10-09T12:13:16.567Z,102036.70
2018-10-09T12:15:45.951Z,102038.50
2018-10-09T12:18:15.360Z,102034.20
2018-10-09T12:20:44.704Z,102042.91
2018-10-09T12:23:19.463Z,102035.12
2018-10-09T12:25:54.243Z,102025.66
2018-10-09T12:28:23.687Z,102027.03
2018-10-09T12:30:53.041Z,102023.68
2018-10-09T12:33:22.299Z,102024.86
2018-10-09T12:35:51.582Z,102030.39
2018-10-09T12:38:20.960Z,102027.11
2018-10-09T12:40:50.793Z,102018.22
2018-10-09T12:43:20.152Z,102017.81
2018-10-09T12:45:49.438Z,102021.45
2018-10-09T12:48:18.922Z,102026.14
2018-10-09T12:50:48.218Z,102024.62
2018-10-09T12:53:17.620Z,102028.06
2018-10-09T12:55:46.862Z,102014.68
2018-10-09T12:58:16.271Z,102014.14
2018-10-09T13:00:45.713Z,102015.12
2018-10-09T13:03:15.034Z,102014.35
2018-10-09T13:05:44.240Z,102012.22
2018-10-09T13:08:13.560Z,102011.20
2018-10-09T13:10:42.842Z,102012.34
2018-10-09T13:13:12.201Z,102012.34
2018-10-09T13:15:41.513Z,102013.00
2018-10-09T13:18:10.869Z,102006.95
2018-10-09T13:20:40.145Z,102008.69
2018-10-09T13:23:09.407Z,102004.22
2018-10-09T13:25:38.752Z,102005.61
2018-10-09T13:28:08.014Z,102007.91
2018-10-09T13:30:37.373Z,102006.52
2018-10-09T13:33:06.686Z,101995.08
2018-10-09T13:35:36.100Z,102000.82
2018-10-09T13:38:05.485Z,102000.25
2018-10-09T13:40:34.854Z,101996.02
2018-10-09T13:43:04.210Z,101994.38
2018-10-09T13:45:33.502Z,101989.59
2018-10-09T13:48:02.898Z,101993.48
2018-10-09T13:50:32.328Z,101994.09
2018-10-09T13:53:01.547Z,101990.16
2018-10-09T13:55:30.846Z,101989.36
2018-10-09T13:58:00.101Z,101993.16
2018-10-09T14:00:29.394Z,101990.77
2018-10-09T14:02:59.712Z,101989.71
2018-10-09T14:05:29.234Z,101984.84
2018-10-09T14:07:58.868Z,101990.24
2018-10-09T14:10:28.518Z,101989.77
2018-10-09T14:12:57.835Z,101976.34
2018-10-09T14:15:27.162Z,101978.05
2018-10-09T14:17:56.436Z,101978.41
2018-10-09T14:20:25.713Z,101975.13
2018-10-09T14:22:55.041Z,101975.87
2018-10-09T14:25:24.252Z,101973.77
2018-10-09T14:27:53.603Z,101970.20
2018-10-09T14:30:22.942Z,101977.08
2018-10-09T14:32:52.218Z,101974.55
2018-10-09T14:35:22.567Z,101976.80
2018-10-09T14:37:51.901Z,101978.59
2018-10-09T14:40:21.253Z,101978.99
2018-10-09T14:42:50.525Z,101976.80
2018-10-09T14:45:19.917Z,101973.23
2018-10-09T14:47:49.156Z,101970.24
2018-10-09T14:50:18.049Z,101969.92
2018-10-09T14:52:52.605Z,101974.75
2018-10-09T14:55:27.012Z,101970.70
2018-10-09T14:57:55.883Z,101966.03
2018-10-09T15:00:24.785Z,101970.33
2018-10-09T15:02:53.647Z,101968.34
2018-10-09T15:05:22.560Z,101961.55
2018-10-09T15:07:51.454Z,101966.27
2018-10-09T15:10:20.346Z,101964.98
2018-10-09T15:12:49.237Z,101963.72
2018-10-09T15:15:18.176Z,101959.27
2018-10-09T15:17:47.165Z,101964.73
2018-10-09T15:20:16.070Z,101967.91
2018-10-09T15:22:44.937Z,101971.30
2018-10-09T15:25:13.832Z,101972.53
2018-10-09T15:27:42.725Z,101972.05
2018-10-09T15:30:17.078Z,101968.58
2018-10-09T15:32:46.012Z,101966.09
2018-10-09T15:35:14.977Z,101957.00
2018-10-09T15:37:43.887Z,101965.88
2018-10-09T15:40:12.877Z,101963.84
2018-10-09T15:42:41.766Z,101961.22
2018-10-09T15:45:10.670Z,101958.73
2018-10-09T15:47:39.539Z,101964.93
2018-10-09T15:50:08.452Z,101963.93
2018-10-09T15:52:37.469Z,101959.86
2018-10-09T15:55:06.322Z,101960.92
2018-10-09T15:57:35.208Z,101959.48
2018-10-09T16:00:04.147Z,101961.22
2018-10-09T16:02:33.168Z,101958.31
2018-10-09T16:05:02.073Z,101949.63
2018-10-09T16:07:31.000Z,101956.79
2018-10-09T16:10:00.004Z,101959.48
2018-10-09T16:12:30.790Z,101945.98
2018-10-09T16:14:59.814Z,101952.52
2018-10-09T16:17:28.718Z,101959.97
2018-10-09T16:19:58.676Z,101957.35
2018-10-09T16:22:27.798Z,101954.23
2018-10-09T16:24:56.710Z,101958.22
2018-10-09T16:27:25.617Z,101961.50
2018-10-09T16:29:54.616Z,101962.94
2018-10-09T16:32:23.681Z,101959.88
2018-10-09T16:34:52.483Z,101958.30
2018-10-09T16:37:21.351Z,101960.64
2018-10-09T16:39:50.254Z,101961.30
2018-10-09T16:42:19.197Z,101963.98
2018-10-09T16:44:48.073Z,101959.41
2018-10-09T16:47:22.834Z,101960.42
2018-10-09T16:49:51.699Z,101958.47
2018-10-09T16:52:20.584Z,101961.14
2018-10-09T16:54:49.444Z,101957.05
2018-10-09T16:57:18.411Z,101955.91
2018-10-09T16:59:47.426Z,101959.50
2018-10-09T17:02:16.501Z,101964.94
2018-10-09T17:04:45.396Z,101965.34
2018-10-09T17:07:14.374Z,101967.73
2018-10-09T17:09:43.248Z,101972.00
2018-10-09T17:12:12.139Z,101967.85
2018-10-09T17:14:41.045Z,101969.20
2018-10-09T17:17:09.988Z,101967.97
2018-10-09T17:19:38.939Z,101973.44
2018-10-09T17:22:07.911Z,101972.16
2018-10-09T17:24:36.806Z,101968.44
2018-10-09T17:27:05.687Z,101972.41
2018-10-09T17:29:34.580Z,101980.56
2018-10-09T17:32:03.539Z,101976.80
2018-10-09T17:34:32.448Z,101979.94
2018-10-09T17:37:01.366Z,101977.16
2018-10-09T17:39:30.244Z,101974.24
2018-10-09T17:41:59.228Z,101977.69
2018-10-09T17:44:28.096Z,101981.64
2018-10-09T17:46:57.117Z,101981.31
2018-10-09T17:49:25.957Z,101982.02
2018-10-09T17:51:54.847Z,101982.55
2018-10-09T17:54:23.737Z,101984.18
2018-10-09T17:56:52.683Z,101978.64
2018-10-09T17:59:21.565Z,101981.19
2018-10-09T18:01:50.593Z,101987.75
2018-10-09T18:04:19.517Z,101981.30
2018-10-09T18:06:48.442Z,101984.27
2018-10-09T18:09:17.361Z,101985.95
2018-10-09T18:11:46.303Z,101985.16
2018-10-09T18:14:15.735Z,101988.16
2018-10-09T18:16:44.706Z,101984.72
2018-10-09T18:19:13.701Z,101985.24
2018-10-09T18:21:42.718Z,101985.98
2018-10-09T18:24:11.575Z,101982.70
2018-10-09T18:26:40.857Z,101985.77
2018-10-09T18:29:09.748Z,101991.77
2018-10-09T18:31:38.719Z,101994.53
2018-10-09T18:34:07.634Z,101991.62
2018-10-09T18:36:36.523Z,101994.61
2018-10-09T18:40:12.315Z,101997.97
2018-10-09T18:42:41.389Z,101997.13
2018-10-09T18:45:10.379Z,101996.59
2018-10-09T18:47:41.780Z,101997.29
2018-10-09T18:50:11.240Z,101991.39
2018-10-09T18:52:40.727Z,101986.77
2018-10-09T18:55:11.698Z,101981.77
2018-10-09T18:57:40.599Z,101976.79
2018-10-09T19:00:10.088Z,101983.74
2018-10-09T19:02:39.570Z,101980.11
2018-10-09T19:05:09.080Z,101985.15
2018-10-09T19:07:38.275Z,101981.09
2018-10-09T19:10:07.515Z,101988.19
2018-10-09T19:12:36.402Z,101981.14
2018-10-09T19:15:05.519Z,101984.95
2018-10-09T19:17:34.409Z,101985.09
2018-10-09T19:20:03.284Z,101973.13
2018-10-09T19:22:32.224Z,101990.58
2018-10-09T19:25:07.018Z,101987.38
2018-10-09T19:27:35.971Z,101989.35
2018-10-09T19:30:05.235Z,101987.22
2018-10-09T19:32:34.181Z,101988.81
2018-10-09T19:35:03.892Z,101980.05
2018-10-09T19:37:32.809Z,101989.14
2018-10-09T19:40:01.786Z,101986.52
2018-10-09T19:42:30.647Z,101985.05
2018-10-09T19:44:59.586Z,101985.45
2018-10-09T19:47:32.781Z,101986.19
2018-10-09T19:50:01.647Z,101994.53
2018-10-09T19:52:42.979Z,101991.86
2018-10-09T19:55:11.974Z,101993.86
2018-10-09T19:57:40.940Z,101990.09
2018-10-09T20:00:09.896Z,101991.64
2018-10-09T20:02:38.883Z,101993.64
2018-10-09T20:05:07.861Z,101993.02
2018-10-09T20:07:36.771Z,101995.80
2018-10-09T20:10:05.734Z,101996.53
2018-10-09T20:12:34.628Z,101992.74
2018-10-09T20:15:03.573Z,101994.02
2018-10-09T20:17:32.542Z,101988.91
2018-10-09T20:20:01.499Z,101985.94
2018-10-09T20:22:30.471Z,101989.96
2018-10-09T20:24:59.389Z,101991.39
2018-10-09T20:27:28.289Z,101979.47
2018-10-09T20:29:57.201Z,101979.39
2018-10-09T20:32:26.144Z,101981.39
2018-10-09T20:34:55.065Z,101977.74
2018-10-09T20:37:24.051Z,101977.55
2018-10-09T20:39:52.971Z,101982.50
2018-10-09T20:42:28.368Z,101980.81
2018-10-09T20:44:57.332Z,101985.36
2018-10-09T20:47:31.616Z,101979.88
2018-10-09T20:50:00.499Z,101986.37
2018-10-09T20:52:30.107Z,101981.25
2018-10-09T20:54:59.048Z,101988.22
2018-10-09T20:57:28.018Z,101984.73
2018-10-09T20:59:56.941Z,101985.45
2018-10-09T21:02:25.929Z,101986.09
2018-10-09T21:04:54.942Z,101993.34
2018-10-09T21:07:24.064Z,101995.34
2018-10-09T21:09:53.013Z,101992.55
2018-10-09T21:12:22.038Z,101991.28
2018-10-09T21:14:50.935Z,101989.94
2018-10-09T21:17:19.975Z,102004.16
2018-10-09T21:19:49.111Z,101995.38
2018-10-09T21:22:18.009Z,101994.67
2018-10-09T21:24:46.941Z,102001.05
2018-10-09T21:27:15.848Z,102001.50
2018-10-09T21:29:44.819Z,101996.63
2018-10-09T21:32:13.709Z,101999.70
2018-10-09T21:34:42.597Z,101993.44
2018-10-09T21:37:11.736Z,101988.52
2018-10-09T21:39:40.611Z,101988.11
2018-10-09T21:42:09.505Z,101986.84
2018-10-09T21:44:38.604Z,101984.47
2018-10-09T21:47:07.491Z,101984.62
2018-10-09T21:49:36.393Z,101986.38
2018-10-09T21:52:05.275Z,101980.42
2018-10-09T21:54:34.267Z,101987.99
2018-10-09T21:57:03.219Z,101980.68
2018-10-09T21:59:32.180Z,101980.76
2018-10-09T22:02:01.060Z,101980.68
2018-10-09T22:04:29.970Z,101977.83
2018-10-09T22:06:58.854Z,101983.05
2018-10-09T22:09:27.728Z,101978.69
2018-10-09T22:11:56.716Z,101974.41
2018-10-09T22:14:25.632Z,101979.74
2018-10-09T22:16:54.629Z,101978.92
2018-10-09T22:19:23.592Z,101978.02
2018-10-09T22:21:52.494Z,101974.16
2018-10-09T22:24:21.508Z,101976.22
2018-10-09T22:26:50.462Z,101972.63
2018-10-09T22:29:19.399Z,101974.95
2018-10-09T22:31:48.356Z,101976.30
2018-10-09T22:34:17.251Z,101973.41
2018-10-09T22:36:46.174Z,101973.34
2018-10-09T22:39:15.102Z,101966.66
2018-10-09T22:41:43.997Z,101974.88
2018-10-09T22:44:12.931Z,101967.71
2018-10-09T22:46:41.832Z,101959.30
2018-10-09T22:49:10.707Z,101956.91
2018-10-09T22:51:39.610Z,101958.82
2018-10-09T22:54:08.532Z,101960.09
2018-10-09T22:56:37.484Z,101962.31
2018-10-09T22:59:06.495Z,101959.05
2018-10-09T23:01:35.454Z,101956.68
2018-10-09T23:04:04.362Z,101959.61
2018-10-09T23:06:33.247Z,101963.58
2018-10-09T23:09:02.132Z,101965.87
2018-10-09T23:11:31.091Z,101971.46
2018-10-09T23:14:00.132Z,101965.80
2018-10-09T23:16:29.028Z,101967.48
2018-10-09T23:18:58.007Z,101971.27
2018-10-09T23:21:26.858Z,101967.97
2018-10-09T23:23:55.764Z,101962.39
2018-10-09T23:26:24.688Z,101964.70
2018-10-09T23:28:53.696Z,101968.27
2018-10-09T23:31:22.597Z,101962.72
2018-10-09T23:33:51.566Z,101963.28
2018-10-09T23:36:20.487Z,101963.05
2018-10-09T23:38:49.521Z,101963.36
2018-10-09T23:41:18.458Z,101963.54
2018-10-09T23:43:47.330Z,101964.17
2018-10-09T23:46:16.250Z,101959.56
2018-10-09T23:49:48.692Z,101961.14
2018-10-09T23:52:17.603Z,101959.56
2018-10-09T23:54:46.500Z,101956.79
2018-10-09T23:57:15.398Z,101944.56
2018-10-09T23:59:44.296Z,101948.44
